Aérodrome :
LOGIN :

S'inscrire | Disclaimer

   EN    FR    IT 

 










Légende :    VFR   VFR Marginal   IFR   IFR Intensif   IFR Très Intensif
Visi : 
Plafond : 
>= 8 km
>= 3000ft
5 à 8 km
1000 à 3000 ft
1500m à 5 km
500 à 1000 ft
800 à 1500m
200 à 500 ft
< 800m
< 200 ft
Symboles :   Orages  Brouillard  Fortes neiges  Fortes précipitations  Vent > 20 kt
SIGMETs :   Divers  Orages  Givrage  Turbulence  Onde Orograph.  Cendres Volcan.






- Altitude de l'aérodrome : 82 ft
- Code IATA : AAR


EKAH - Aarhus Tirstrup

DERNIER METAR :
  • 182220Z AUTO 22005KT 170V280 9999NDV -SHRA OVC009/// 05/04 Q1004

METARs EXPIRÉS :
  • 182150Z AUTO 22004KT 170V270 9999NDV -SHRA OVC015/// 05/04 Q1005
  • 182120Z AUTO 22005KT 160V270 9999NDV BKN014/// BKN042/// 05/04 Q1005
  • 182050Z AUTO 22005KT 190V260 9999NDV BKN016/// BKN100/// 05/03 Q1005
  • 182020Z AUTO 23006KT 190V260 9999NDV BKN016/// BKN100/// 05/04 Q1006
  • 181950Z AUTO 24006KT 190V270 9999NDV BKN019/// BKN043/// 04/04 Q1006

TAF AMD TAF EKAH
Valide du 18 à 18h jusqu'au 19 à 18h UTC


181852Z 1818/1918 24012KT 9999 BKN020
TEMPO 1818/1822 BKN012 SCT020CB
BECMG 1822/1824 4000 RA BKN010 BKN012CB
BECMG 1900/1902 9999 NSW BKN020
TEMPO 1902/1912 SCT020CB
TEMPO 1913/1918 SHRA BKN020CB



MET'MAP, la Météo Aéronautique d'un coup d'oeil ! - Copyright ORBIFLY Décembre 2007 - Disclaimer

ORBIFLY MET'MAP TEAM :

Programmation & Développement : Alexandra Zaïnal
Sur une idée originale de : Baudouin d'Aumeries
Assistance à la programmation : Marc-Olivier Méhu
Soutien technique & logistique : Manuel Goepfert

Contact : metmap@orbifly.com




SOURCES & CREDITS :

   NOAA